createdAt,value
2022-12-11T00:00:56.431Z,2.10
2022-12-11T00:03:24.458Z,1.87
2022-12-11T00:05:52.451Z,2.00
2022-12-11T00:08:20.422Z,2.10
2022-12-11T00:10:50.312Z,2.33
2022-12-11T00:13:18.357Z,2.53
2022-12-11T00:15:47.629Z,2.30
2022-12-11T00:18:15.696Z,2.40
2022-12-11T00:20:43.927Z,2.20
2022-12-11T00:23:12.457Z,2.20
2022-12-11T00:25:43.955Z,2.20
2022-12-11T00:28:12.135Z,2.00
2022-12-11T00:30:41.703Z,2.30
2022-12-11T00:33:13.880Z,2.37
2022-12-11T00:35:42.746Z,2.27
2022-12-11T00:38:14.969Z,2.03
2022-12-11T00:40:43.423Z,2.03
2022-12-11T00:43:11.408Z,2.07
2022-12-11T00:45:39.871Z,1.87
2022-12-11T00:48:08.951Z,1.77
2022-12-11T00:50:38.676Z,2.00
2022-12-11T00:53:08.138Z,1.93
2022-12-11T00:55:38.777Z,1.90
2022-12-11T00:58:06.947Z,2.10
2022-12-11T01:00:35.442Z,2.00
2022-12-11T01:03:03.856Z,1.40
2022-12-11T01:05:32.290Z,2.00
2022-12-11T01:08:01.692Z,2.13
2022-12-11T01:10:29.999Z,1.87
2022-12-11T01:12:59.684Z,2.07
2022-12-11T01:15:30.144Z,2.70
2022-12-11T01:17:58.904Z,2.10
2022-12-11T01:20:28.287Z,2.13
2022-12-11T01:22:57.580Z,1.90
2022-12-11T01:25:27.302Z,2.10
2022-12-11T01:27:56.922Z,2.20
2022-12-11T01:30:26.771Z,2.10
2022-12-11T01:32:54.803Z,2.10
2022-12-11T01:35:23.029Z,2.33
2022-12-11T01:37:51.218Z,2.10
2022-12-11T01:40:21.209Z,1.97
2022-12-11T01:42:50.676Z,2.17
2022-12-11T01:45:30.072Z,2.30
2022-12-11T01:48:03.801Z,2.17
2022-12-11T01:50:34.182Z,1.87
2022-12-11T01:53:03.434Z,2.13
2022-12-11T01:55:31.396Z,2.23
2022-12-11T01:58:01.620Z,2.10
2022-12-11T02:00:29.720Z,2.20
2022-12-11T02:02:57.761Z,2.10
2022-12-11T02:05:25.754Z,2.00
2022-12-11T02:07:56.241Z,1.87
2022-12-11T02:10:29.733Z,1.70
2022-12-11T02:13:05.832Z,2.10
2022-12-11T02:15:38.988Z,2.20
2022-12-11T02:18:16.058Z,1.83
2022-12-11T02:20:49.667Z,1.80
2022-12-11T02:23:33.288Z,1.93
2022-12-11T02:26:19.468Z,2.20
2022-12-11T02:28:52.531Z,2.47
2022-12-11T02:31:25.466Z,2.00
2022-12-11T02:34:02.187Z,2.00
2022-12-11T02:36:34.350Z,2.00
2022-12-11T02:39:03.621Z,1.90
2022-12-11T02:41:33.716Z,2.20
2022-12-11T02:44:04.403Z,2.23
2022-12-11T02:46:35.764Z,2.17
2022-12-11T02:49:06.293Z,2.33
2022-12-11T02:51:37.587Z,2.00
2022-12-11T02:54:09.992Z,2.53
2022-12-11T02:56:41.764Z,2.47
2022-12-11T02:59:15.615Z,2.50
2022-12-11T03:01:44.165Z,2.10
2022-12-11T03:04:12.166Z,1.83
2022-12-11T03:06:44.677Z,2.00
2022-12-11T03:09:12.650Z,2.17
2022-12-11T03:11:40.595Z,2.10
2022-12-11T03:14:09.319Z,2.13
2022-12-11T03:16:41.687Z,2.37
2022-12-11T03:19:15.827Z,1.97
2022-12-11T03:21:48.645Z,2.70
2022-12-11T03:24:21.871Z,2.30
2022-12-11T03:26:57.329Z,1.90
2022-12-11T03:29:33.216Z,1.57
2022-12-11T03:32:08.934Z,2.13
2022-12-11T03:34:44.604Z,2.23
2022-12-11T03:37:14.963Z,2.30
2022-12-11T03:39:48.363Z,2.30
2022-12-11T03:42:17.597Z,2.07
2022-12-11T03:44:49.032Z,2.70
2022-12-11T03:47:21.681Z,2.53
2022-12-11T03:49:52.411Z,2.63
2022-12-11T03:52:21.854Z,2.27
2022-12-11T03:54:52.596Z,1.60
2022-12-11T03:57:24.163Z,2.67
2022-12-11T03:59:52.158Z,2.70
2022-12-11T04:02:21.598Z,2.27
2022-12-11T04:04:49.570Z,2.20
2022-12-11T04:07:17.589Z,2.20
2022-12-11T04:09:45.591Z,1.80
2022-12-11T04:12:13.585Z,1.90
2022-12-11T04:14:59.527Z,2.40
2022-12-11T04:17:46.467Z,2.23
2022-12-11T04:20:32.192Z,1.97
2022-12-11T04:23:29.018Z,2.30
2022-12-11T04:26:05.287Z,2.07
2022-12-11T04:28:33.656Z,2.80
2022-12-11T04:31:01.708Z,2.50
2022-12-11T04:33:31.543Z,2.17
2022-12-11T04:36:00.436Z,2.43
2022-12-11T04:38:28.590Z,2.33
2022-12-11T04:41:00.193Z,2.53
2022-12-11T04:43:28.684Z,1.70
2022-12-11T04:46:03.307Z,1.93
2022-12-11T04:48:32.913Z,1.80
2022-12-11T04:51:01.092Z,2.53
2022-12-11T04:53:29.442Z,1.73
2022-12-11T04:55:57.693Z,1.30
2022-12-11T04:58:26.248Z,1.80
2022-12-11T05:00:55.027Z,2.20
2022-12-11T05:03:23.046Z,1.70
2022-12-11T05:05:53.731Z,1.97
2022-12-11T05:08:22.595Z,1.63
2022-12-11T05:10:57.365Z,2.10
2022-12-11T05:13:25.734Z,1.70
2022-12-11T05:15:53.696Z,2.27
2022-12-11T05:18:21.790Z,2.30
2022-12-11T05:20:57.960Z,1.97
2022-12-11T05:23:26.407Z,2.13
2022-12-11T05:25:54.851Z,2.27
2022-12-11T05:28:24.887Z,2.30
2022-12-11T05:30:57.778Z,2.30
2022-12-11T05:33:26.433Z,2.37
2022-12-11T05:35:54.375Z,2.23
2022-12-11T05:38:24.265Z,1.53
2022-12-11T05:40:58.779Z,1.70
2022-12-11T05:43:27.509Z,2.20
2022-12-11T05:45:55.820Z,2.00
2022-12-11T05:48:24.284Z,2.20
2022-12-11T05:50:59.143Z,2.33
2022-12-11T05:53:29.410Z,2.30
2022-12-11T05:56:02.692Z,2.23
2022-12-11T05:58:30.829Z,2.10
2022-12-11T06:00:58.815Z,2.00
2022-12-11T06:03:26.982Z,2.53
2022-12-11T06:05:55.178Z,2.20
2022-12-11T06:08:23.184Z,2.33
2022-12-11T06:10:52.542Z,2.27
2022-12-11T06:13:20.591Z,1.87
2022-12-11T06:15:48.552Z,2.03
2022-12-11T06:18:16.561Z,2.50
2022-12-11T06:20:44.834Z,1.23
2022-12-11T06:23:13.014Z,1.27
2022-12-11T06:25:41.572Z,1.67
2022-12-11T06:28:11.503Z,2.30
2022-12-11T06:30:39.716Z,2.10
2022-12-11T06:33:08.029Z,2.60
2022-12-11T06:35:41.731Z,2.43
2022-12-11T06:38:10.652Z,2.60
2022-12-11T06:40:39.223Z,2.10
2022-12-11T06:43:07.348Z,2.73
2022-12-11T06:45:38.212Z,1.70
2022-12-11T06:48:06.538Z,2.43
2022-12-11T06:50:34.551Z,2.23
2022-12-11T06:53:02.796Z,2.10
2022-12-11T06:55:30.751Z,1.53
2022-12-11T06:57:58.738Z,2.10
2022-12-11T07:00:27.188Z,1.70
2022-12-11T07:02:56.527Z,2.40
2022-12-11T07:05:24.924Z,2.17
2022-12-11T07:07:54.943Z,2.10
2022-12-11T07:10:23.236Z,2.23
2022-12-11T07:12:53.105Z,2.23
2022-12-11T07:15:21.097Z,2.07
2022-12-11T07:17:49.052Z,1.67
2022-12-11T07:20:31.896Z,2.10
2022-12-11T07:23:53.680Z,2.17
2022-12-11T07:26:23.007Z,2.10
2022-12-11T07:28:51.243Z,1.63
2022-12-11T07:31:21.718Z,2.07
2022-12-11T07:33:53.561Z,2.40
2022-12-11T07:36:21.834Z,2.40
2022-12-11T07:38:50.022Z,1.60
2022-12-11T07:41:19.517Z,1.77
2022-12-11T07:43:54.172Z,1.93
2022-12-11T07:46:24.500Z,1.13
2022-12-11T07:48:52.778Z,1.80
2022-12-11T07:51:25.030Z,1.73
2022-12-11T07:53:53.440Z,2.00
2022-12-11T07:56:23.417Z,2.13
2022-12-11T07:58:52.021Z,1.40
2022-12-11T08:01:21.633Z,1.30
2022-12-11T08:03:50.687Z,2.27
2022-12-11T08:06:22.081Z,1.93
2022-12-11T08:08:50.062Z,1.73
2022-12-11T08:11:18.191Z,1.73
2022-12-11T08:13:47.649Z,1.60
2022-12-11T08:16:16.788Z,0.70
2022-12-11T08:18:45.904Z,1.80
2022-12-11T08:21:15.267Z,1.80
2022-12-11T08:23:43.857Z,1.97
2022-12-11T08:26:14.343Z,2.10
2022-12-11T08:28:42.402Z,2.13
2022-12-11T08:31:13.704Z,2.00
2022-12-11T08:33:42.558Z,2.30
2022-12-11T08:36:12.894Z,2.03
2022-12-11T08:38:41.331Z,2.00
2022-12-11T08:41:10.753Z,2.13
2022-12-11T08:43:39.641Z,2.10
2022-12-11T08:46:08.123Z,1.00
2022-12-11T08:48:40.236Z,0.90
2022-12-11T08:51:09.932Z,1.10
2022-12-11T08:53:38.896Z,1.90
2022-12-11T08:56:09.463Z,1.60
2022-12-11T08:58:38.073Z,1.90
2022-12-11T09:01:08.944Z,1.90
2022-12-11T09:03:39.507Z,2.37
2022-12-11T09:06:08.934Z,2.07
2022-12-11T09:08:37.338Z,1.53
2022-12-11T09:11:06.093Z,1.90
2022-12-11T09:13:34.758Z,1.10
2022-12-11T09:16:05.211Z,2.07
2022-12-11T09:18:33.446Z,1.53
2022-12-11T09:21:04.595Z,1.40
2022-12-11T09:23:32.822Z,1.73
2022-12-11T09:26:01.055Z,2.03
2022-12-11T09:28:29.048Z,2.10
2022-12-11T09:30:57.093Z,2.00
2022-12-11T09:33:25.147Z,2.10
2022-12-11T09:35:59.021Z,2.27
2022-12-11T09:38:28.668Z,2.50
2022-12-11T09:40:57.329Z,2.20
2022-12-11T09:43:37.801Z,2.07
2022-12-11T09:46:11.369Z,2.10
2022-12-11T09:48:40.911Z,2.30
2022-12-11T09:51:18.480Z,2.20
2022-12-11T09:53:50.290Z,2.30
2022-12-11T09:56:23.126Z,2.17
2022-12-11T09:59:06.854Z,2.00
2022-12-11T10:01:43.699Z,2.17
2022-12-11T10:04:28.576Z,2.03
2022-12-11T10:07:06.204Z,2.30
2022-12-11T10:09:42.279Z,1.90
2022-12-11T10:12:23.109Z,2.10
2022-12-11T10:15:06.479Z,2.57
2022-12-11T10:17:37.437Z,2.37
2022-12-11T10:20:18.718Z,2.30
2022-12-11T10:22:47.584Z,2.47
2022-12-11T10:25:21.440Z,2.10
2022-12-11T10:27:50.843Z,2.50
2022-12-11T10:30:21.450Z,1.97
2022-12-11T10:32:55.121Z,2.90
2022-12-11T10:35:32.509Z,2.30
2022-12-11T10:38:13.246Z,2.57
2022-12-11T10:40:46.680Z,2.50
2022-12-11T10:43:14.840Z,2.30
2022-12-11T10:45:52.527Z,2.60
2022-12-11T10:48:22.247Z,2.70
2022-12-11T10:50:59.731Z,2.33
2022-12-11T10:53:29.094Z,2.77
2022-12-11T10:55:59.084Z,2.53
2022-12-11T10:58:31.873Z,2.50
2022-12-11T11:01:11.755Z,2.27
2022-12-11T11:03:57.921Z,2.60
2022-12-11T11:06:27.713Z,2.40
2022-12-11T11:08:57.688Z,2.67
2022-12-11T11:11:29.707Z,2.30
2022-12-11T11:14:12.886Z,2.43
2022-12-11T11:16:42.546Z,7.80
2022-12-11T11:19:19.834Z,2.40
2022-12-11T11:21:51.892Z,2.80
2022-12-11T11:24:28.458Z,2.40
2022-12-11T11:27:14.348Z,2.70
2022-12-11T11:29:45.771Z,3.07
2022-12-11T11:32:20.484Z,3.37
2022-12-11T11:34:48.510Z,3.23
2022-12-11T11:37:26.661Z,2.87
2022-12-11T11:40:00.920Z,3.23
2022-12-11T11:42:43.273Z,2.10
2022-12-11T11:45:16.726Z,2.90
2022-12-11T11:47:53.931Z,2.30
2022-12-11T11:50:27.418Z,2.67
2022-12-11T11:53:03.387Z,2.53
2022-12-11T11:55:42.158Z,2.57
2022-12-11T11:58:19.302Z,2.27
2022-12-11T12:00:47.259Z,2.73
2022-12-11T12:03:19.274Z,2.87
2022-12-11T12:05:55.066Z,2.73
2022-12-11T12:08:31.755Z,2.70
2022-12-11T12:11:06.125Z,2.70
2022-12-11T12:13:50.760Z,2.60
2022-12-11T12:16:52.207Z,2.43
2022-12-11T12:19:33.406Z,1.97
2022-12-11T12:22:21.971Z,3.20
2022-12-11T12:25:01.397Z,2.87
2022-12-11T12:27:52.174Z,3.23
2022-12-11T12:30:23.811Z,2.93
2022-12-11T12:33:11.815Z,2.80
2022-12-11T12:35:45.870Z,2.70
2022-12-11T12:38:20.754Z,3.83
2022-12-11T12:40:57.388Z,2.77
2022-12-11T12:43:45.389Z,2.80
2022-12-11T12:46:27.458Z,2.27
2022-12-11T12:48:57.982Z,2.80
2022-12-11T12:51:27.180Z,2.50
2022-12-11T12:53:58.558Z,2.60
2022-12-11T12:56:28.743Z,2.40
2022-12-11T12:58:56.729Z,2.60
2022-12-11T13:01:28.093Z,2.30
2022-12-11T13:03:57.883Z,1.90
2022-12-11T13:06:36.806Z,1.83
2022-12-11T13:09:19.557Z,2.20
2022-12-11T13:11:52.014Z,2.20
2022-12-11T13:14:31.114Z,2.30
2022-12-11T13:17:27.519Z,2.10
2022-12-11T13:20:17.908Z,2.53
2022-12-11T13:23:05.621Z,2.20
2022-12-11T13:25:46.314Z,2.97
2022-12-11T13:28:24.233Z,2.53
2022-12-11T13:31:09.101Z,2.90
2022-12-11T13:33:44.834Z,2.50
2022-12-11T13:36:28.734Z,2.37
2022-12-11T13:38:59.863Z,2.20
2022-12-11T13:41:29.154Z,2.80
2022-12-11T13:43:59.645Z,2.50
2022-12-11T13:46:31.272Z,2.20
2022-12-11T13:49:03.291Z,2.00
2022-12-11T13:51:35.048Z,2.30
2022-12-11T13:54:10.636Z,2.03
2022-12-11T13:56:42.437Z,2.33
2022-12-11T13:59:24.456Z,2.40
2022-12-11T14:01:55.965Z,2.13
2022-12-11T14:04:28.040Z,2.10
2022-12-11T14:06:57.489Z,2.60
2022-12-11T14:09:27.810Z,3.97
2022-12-11T14:11:59.166Z,2.30
2022-12-11T14:14:33.928Z,4.83
2022-12-11T14:17:02.684Z,3.63
2022-12-11T14:19:32.075Z,3.47
2022-12-11T14:22:01.908Z,3.83
2022-12-11T14:24:30.974Z,2.90
2022-12-11T14:27:00.106Z,2.10
2022-12-11T14:29:30.769Z,2.30
2022-12-11T14:32:03.455Z,2.70
2022-12-11T14:34:38.227Z,2.77
2022-12-11T14:37:07.893Z,3.23
2022-12-11T14:39:41.936Z,3.20
2022-12-11T14:42:15.983Z,3.50
2022-12-11T14:44:49.689Z,3.40
2022-12-11T14:47:21.292Z,3.10
2022-12-11T14:49:55.486Z,2.80
2022-12-11T14:52:26.776Z,2.40
2022-12-11T14:55:01.011Z,3.07
2022-12-11T14:57:32.258Z,3.13
2022-12-11T15:00:00.843Z,2.77
2022-12-11T15:02:32.482Z,3.20
2022-12-11T15:05:15.862Z,3.40
2022-12-11T15:07:45.019Z,4.93
2022-12-11T15:10:26.448Z,5.70
2022-12-11T15:12:55.561Z,8.07
2022-12-11T15:15:23.595Z,8.37
2022-12-11T15:17:53.197Z,4.47
2022-12-11T15:20:29.087Z,3.80
2022-12-11T15:23:01.529Z,3.63
2022-12-11T15:25:31.201Z,3.17
2022-12-11T15:28:00.989Z,2.93
2022-12-11T15:30:32.388Z,3.43
2022-12-11T15:33:22.041Z,2.83
2022-12-11T15:36:22.623Z,3.90
2022-12-11T15:38:50.667Z,3.37
2022-12-11T15:41:23.922Z,3.57
2022-12-11T15:43:58.109Z,3.70
2022-12-11T15:46:27.127Z,3.07
2022-12-11T15:48:57.421Z,3.37
2022-12-11T15:51:27.522Z,3.50
2022-12-11T15:53:55.556Z,3.50
2022-12-11T15:56:23.515Z,4.03
2022-12-11T15:58:51.547Z,3.60
2022-12-11T16:01:19.567Z,3.23
2022-12-11T16:03:47.543Z,3.50
2022-12-11T16:06:15.547Z,3.17
2022-12-11T16:08:44.894Z,3.43
2022-12-11T16:11:14.690Z,3.43
2022-12-11T16:13:45.390Z,3.20
2022-12-11T16:16:13.476Z,3.70
2022-12-11T16:18:41.498Z,4.50
2022-12-11T16:21:09.500Z,4.00
2022-12-11T16:23:37.433Z,5.13
2022-12-11T16:26:09.986Z,3.50
2022-12-11T16:28:38.022Z,3.50
2022-12-11T16:31:11.652Z,3.83
2022-12-11T16:33:40.247Z,3.90
2022-12-11T16:36:14.719Z,4.70
2022-12-11T16:38:51.402Z,3.37
2022-12-11T16:41:23.815Z,4.00
2022-12-11T16:43:51.914Z,4.97
2022-12-11T16:46:20.420Z,4.07
2022-12-11T16:48:48.780Z,4.30
2022-12-11T16:51:17.131Z,3.93
2022-12-11T16:53:46.079Z,4.47
2022-12-11T16:56:14.432Z,4.27
2022-12-11T16:58:43.745Z,3.77
2022-12-11T17:01:13.761Z,3.13
2022-12-11T17:03:42.411Z,3.73
2022-12-11T17:06:11.967Z,4.37
2022-12-11T17:08:41.248Z,3.87
2022-12-11T17:11:10.475Z,4.10
2022-12-11T17:13:38.884Z,3.50
2022-12-11T17:16:09.084Z,2.97
2022-12-11T17:18:37.214Z,3.20
2022-12-11T17:21:06.953Z,3.40
2022-12-11T17:23:35.327Z,2.70
2022-12-11T17:26:04.311Z,3.23
2022-12-11T17:28:32.826Z,3.30
2022-12-11T17:31:00.824Z,2.53
2022-12-11T17:33:30.227Z,2.40
2022-12-11T17:36:01.044Z,3.27
2022-12-11T17:38:29.399Z,2.90
2022-12-11T17:40:57.745Z,3.00
2022-12-11T17:43:25.846Z,2.60
